createdAt,value
2022-09-28T04:00:32.799Z,65.77
2022-09-28T04:03:02.937Z,65.67
2022-09-28T04:05:32.355Z,65.38
2022-09-28T04:08:02.160Z,65.40
2022-09-28T04:10:31.450Z,65.58
2022-09-28T04:13:00.556Z,65.70
2022-09-28T04:15:30.147Z,65.87
2022-09-28T04:17:58.636Z,65.94
2022-09-28T04:20:48.808Z,66.02
2022-09-28T04:23:17.615Z,65.98
2022-09-28T04:25:53.098Z,65.94
2022-09-28T04:28:41.807Z,66.08
2022-09-28T04:31:18.716Z,66.14
2022-09-28T04:33:48.857Z,66.05
2022-09-28T04:36:20.462Z,66.06
2022-09-28T04:38:53.179Z,66.07
2022-09-28T04:41:25.930Z,66.05
2022-09-28T04:43:55.989Z,65.99
2022-09-28T04:46:27.817Z,66.11
2022-09-28T04:49:16.269Z,65.98
2022-09-28T04:51:56.225Z,66.18
2022-09-28T04:54:25.671Z,66.05
2022-09-28T04:56:54.454Z,66.28
2022-09-28T04:59:23.442Z,66.28
2022-09-28T05:01:53.878Z,66.23
2022-09-28T05:04:25.656Z,66.24
2022-09-28T05:07:14.338Z,66.19
2022-09-28T05:09:42.961Z,66.12
2022-09-28T05:12:12.194Z,66.21
2022-09-28T05:14:41.858Z,66.11
2022-09-28T05:17:11.163Z,66.27
2022-09-28T05:19:57.862Z,66.28
2022-09-28T05:22:28.258Z,66.15
2022-09-28T05:24:59.486Z,66.11
2022-09-28T05:27:31.615Z,66.28
2022-09-28T05:30:09.332Z,66.34
2022-09-28T05:33:18.201Z,66.44
2022-09-28T05:36:01.374Z,66.27
2022-09-28T05:38:32.257Z,66.31
2022-09-28T05:41:06.246Z,66.30
2022-09-28T05:43:36.954Z,66.28
2022-09-28T05:46:08.634Z,66.28
2022-09-28T05:48:40.869Z,66.16
2022-09-28T05:51:10.836Z,66.26
2022-09-28T05:53:40.147Z,66.43
2022-09-28T05:56:09.723Z,66.44
2022-09-28T05:58:43.091Z,66.25
2022-09-28T06:01:14.347Z,66.28
2022-09-28T06:03:43.915Z,66.23
2022-09-28T06:06:13.705Z,66.36
2022-09-28T06:08:44.152Z,66.18
2022-09-28T06:11:33.620Z,66.35
2022-09-28T06:14:08.625Z,66.28
2022-09-28T06:16:41.701Z,66.23
2022-09-28T06:19:13.286Z,66.45
2022-09-28T06:22:18.254Z,66.50
2022-09-28T06:24:54.607Z,66.54
2022-09-28T06:27:23.584Z,66.46
2022-09-28T06:29:53.387Z,66.50
2022-09-28T06:32:23.018Z,66.38
2022-09-28T06:34:56.160Z,66.31
2022-09-28T06:37:29.186Z,66.30
2022-09-28T06:40:00.016Z,66.43
2022-09-28T06:42:28.758Z,66.40
2022-09-28T06:45:22.716Z,66.42
2022-09-28T06:48:09.961Z,66.41
2022-09-28T06:50:42.287Z,66.36
2022-09-28T06:53:29.424Z,66.30
2022-09-28T06:56:12.629Z,66.04
2022-09-28T06:58:41.455Z,65.94
2022-09-28T07:01:12.365Z,66.02
2022-09-28T07:04:04.066Z,66.22
2022-09-28T07:06:53.135Z,66.20
2022-09-28T07:09:44.961Z,66.13
2022-09-28T07:12:36.892Z,66.04
2022-09-28T07:15:19.620Z,66.28
2022-09-28T07:18:00.041Z,66.30
2022-09-28T07:20:41.907Z,66.26
2022-09-28T07:23:19.962Z,66.13
2022-09-28T07:26:09.253Z,66.14
2022-09-28T07:28:57.345Z,66.03
2022-09-28T07:31:38.107Z,65.77
2022-09-28T07:34:25.799Z,65.73
2022-09-28T07:37:00.579Z,65.49
2022-09-28T07:39:29.586Z,65.43
2022-09-28T07:42:02.643Z,65.24
2022-09-28T07:44:34.364Z,65.13
2022-09-28T07:47:03.773Z,64.92
2022-09-28T07:49:59.600Z,64.89
2022-09-28T07:52:48.258Z,64.89
2022-09-28T07:55:41.837Z,64.78
2022-09-28T07:58:16.225Z,64.80
2022-09-28T08:00:57.785Z,64.86
2022-09-28T08:03:28.463Z,64.73
2022-09-28T08:05:59.981Z,64.98
2022-09-28T08:08:30.543Z,64.84
2022-09-28T08:11:01.102Z,64.75
2022-09-28T08:13:47.849Z,64.86
2022-09-28T08:16:47.613Z,64.56
2022-09-28T08:19:48.935Z,64.34
2022-09-28T08:22:21.777Z,64.14
2022-09-28T08:24:53.545Z,64.22
2022-09-28T08:27:22.883Z,64.23
2022-09-28T08:29:52.385Z,64.03
2022-09-28T08:32:42.977Z,63.99
2022-09-28T08:35:31.844Z,63.72
2022-09-28T08:38:20.933Z,63.77
2022-09-28T08:41:31.217Z,63.72
2022-09-28T08:44:16.999Z,63.61
2022-09-28T08:47:42.327Z,63.78
2022-09-28T08:50:34.734Z,63.21
2022-09-28T08:53:32.113Z,63.18
2022-09-28T08:56:19.204Z,63.28
2022-09-28T08:58:57.432Z,63.12
2022-09-28T09:01:33.447Z,62.96
2022-09-28T09:04:05.968Z,62.77
2022-09-28T09:06:50.415Z,62.56
2022-09-28T09:09:50.196Z,62.85
2022-09-28T09:12:43.848Z,62.58
2022-09-28T09:15:41.200Z,62.67
2022-09-28T09:18:43.087Z,62.26
2022-09-28T09:21:49.849Z,62.18
2022-09-28T09:24:43.035Z,62.01
2022-09-28T09:27:37.518Z,62.03
2022-09-28T09:30:12.178Z,62.00
2022-09-28T09:32:54.015Z,61.94
2022-09-28T09:35:54.439Z,61.75
2022-09-28T09:39:04.731Z,61.97
2022-09-28T09:42:19.199Z,61.78
2022-09-28T09:46:13.453Z,61.89
2022-09-28T09:49:02.144Z,61.73
2022-09-28T09:51:37.513Z,61.50
2022-09-28T09:54:34.987Z,61.61
2022-09-28T09:57:16.233Z,61.24
2022-09-28T10:00:13.018Z,61.12
2022-09-28T10:02:52.450Z,60.97
2022-09-28T10:05:32.685Z,60.72
2022-09-28T10:08:12.255Z,60.81
2022-09-28T10:10:55.201Z,60.64
2022-09-28T10:13:26.269Z,60.60
2022-09-28T10:15:57.285Z,60.48
2022-09-28T10:18:40.480Z,60.37
2022-09-28T10:21:21.691Z,60.18
2022-09-28T10:24:00.380Z,60.11
2022-09-28T10:26:38.392Z,60.00
2022-09-28T10:29:22.013Z,60.11
2022-09-28T10:31:54.527Z,60.00
2022-09-28T10:34:31.268Z,60.13
2022-09-28T10:37:11.754Z,59.97
2022-09-28T10:40:31.253Z,60.07
2022-09-28T10:43:28.137Z,59.88
2022-09-28T10:46:31.563Z,60.08
2022-09-28T10:49:05.869Z,59.99
2022-09-28T10:51:47.347Z,59.83
2022-09-28T10:54:31.646Z,59.62
2022-09-28T10:57:02.572Z,59.53
2022-09-28T10:59:42.332Z,59.36
2022-09-28T11:02:39.381Z,59.15
2022-09-28T11:05:30.733Z,59.13
2022-09-28T11:08:07.401Z,58.88
2022-09-28T11:10:43.588Z,58.87
2022-09-28T11:13:16.824Z,58.74
2022-09-28T11:15:53.476Z,58.57
2022-09-28T11:18:32.711Z,58.59
2022-09-28T11:21:35.374Z,58.40
2022-09-28T11:24:20.771Z,58.52
2022-09-28T11:26:54.054Z,58.46
2022-09-28T11:29:36.545Z,58.61
2022-09-28T11:32:46.281Z,58.45
2022-09-28T11:35:28.566Z,58.29
2022-09-28T11:38:17.086Z,58.37
2022-09-28T11:41:35.533Z,58.23
2022-09-28T11:44:29.462Z,57.84
2022-09-28T11:47:50.634Z,57.70
2022-09-28T11:50:38.986Z,57.99
2022-09-28T11:53:28.597Z,57.77
2022-09-28T11:56:16.253Z,57.71
2022-09-28T11:59:17.951Z,57.50
2022-09-28T12:01:54.838Z,57.33
2022-09-28T12:04:31.845Z,57.41
2022-09-28T12:07:14.291Z,57.43
2022-09-28T12:10:04.211Z,57.39
2022-09-28T12:12:56.432Z,57.23
2022-09-28T12:15:42.221Z,56.98
2022-09-28T12:18:38.021Z,56.75
2022-09-28T12:21:16.335Z,56.72
2022-09-28T12:23:47.240Z,56.68
2022-09-28T12:26:54.769Z,56.73
2022-09-28T12:29:30.002Z,56.39
2022-09-28T12:32:05.614Z,56.46
2022-09-28T12:34:34.290Z,56.40
2022-09-28T12:37:35.251Z,56.28
2022-09-28T12:40:07.037Z,56.09
2022-09-28T12:42:39.489Z,56.14
2022-09-28T12:45:32.878Z,55.98
2022-09-28T12:48:13.606Z,55.80
2022-09-28T12:50:57.349Z,55.86
2022-09-28T12:53:32.730Z,55.89
2022-09-28T12:56:04.938Z,55.93
2022-09-28T12:58:46.844Z,55.86
2022-09-28T13:01:40.424Z,55.64
2022-09-28T13:04:18.069Z,55.44
2022-09-28T13:06:55.713Z,55.25
2022-09-28T13:09:29.222Z,55.31
2022-09-28T13:12:16.397Z,55.22
2022-09-28T13:15:05.677Z,55.10
2022-09-28T13:18:01.671Z,55.32
2022-09-28T13:20:52.174Z,55.17
2022-09-28T13:23:29.089Z,54.93
2022-09-28T13:26:24.642Z,54.94
2022-09-28T13:29:05.624Z,54.86
2022-09-28T13:31:40.599Z,54.90
2022-09-28T13:34:21.423Z,54.81
2022-09-28T13:37:11.432Z,54.71
2022-09-28T13:39:46.644Z,54.68
2022-09-28T13:42:25.005Z,54.49
2022-09-28T13:45:07.109Z,54.36
2022-09-28T13:47:42.536Z,54.57
2022-09-28T13:50:36.788Z,54.49
2022-09-28T13:53:35.410Z,54.37
2022-09-28T13:56:43.120Z,54.14
2022-09-28T13:59:21.814Z,54.24
2022-09-28T14:02:17.465Z,54.23
2022-09-28T14:05:02.886Z,54.07
2022-09-28T14:07:35.485Z,54.08
2022-09-28T14:10:25.297Z,54.08
2022-09-28T14:12:55.635Z,53.91
2022-09-28T14:15:31.223Z,53.90
2022-09-28T14:18:19.835Z,53.76
2022-09-28T14:21:04.213Z,53.79
2022-09-28T14:23:33.230Z,53.77
2022-09-28T14:26:32.764Z,53.66
2022-09-28T14:29:18.134Z,53.75
2022-09-28T14:31:47.318Z,53.55
2022-09-28T14:34:46.089Z,53.66
2022-09-28T14:37:46.582Z,53.65
2022-09-28T14:40:45.934Z,53.72
2022-09-28T14:43:47.554Z,53.64
2022-09-28T14:46:17.557Z,53.55
2022-09-28T14:49:08.336Z,53.59
2022-09-28T14:51:44.392Z,53.37
2022-09-28T14:54:21.138Z,53.73
2022-09-28T14:56:52.837Z,53.47
2022-09-28T14:59:27.322Z,53.49
2022-09-28T15:02:03.035Z,53.33
2022-09-28T15:04:36.068Z,53.50
2022-09-28T15:07:06.262Z,53.49
2022-09-28T15:09:38.826Z,53.35
2022-09-28T15:12:37.192Z,53.24
2022-09-28T15:15:19.580Z,53.42
2022-09-28T15:17:58.358Z,53.30
2022-09-28T15:20:33.818Z,53.22
2022-09-28T15:23:02.501Z,53.33
2022-09-28T15:25:33.079Z,53.45
2022-09-28T15:28:19.952Z,53.46
2022-09-28T15:30:49.773Z,53.40
2022-09-28T15:33:50.224Z,53.60
2022-09-28T15:36:29.969Z,53.49
2022-09-28T15:39:06.929Z,53.55
2022-09-28T15:41:36.013Z,53.69
2022-09-28T15:44:15.234Z,53.73
2022-09-28T15:46:51.023Z,53.73
2022-09-28T15:49:38.936Z,53.70
2022-09-28T15:52:53.496Z,53.68
2022-09-28T15:55:28.217Z,53.86
2022-09-28T15:58:18.838Z,53.99
2022-09-28T16:00:49.810Z,54.11
2022-09-28T16:03:21.798Z,53.98
2022-09-28T16:06:00.272Z,54.05
2022-09-28T16:08:49.330Z,54.11
2022-09-28T16:11:21.652Z,54.12
2022-09-28T16:13:57.159Z,54.27
2022-09-28T16:16:46.486Z,54.20
2022-09-28T16:19:51.453Z,54.24
2022-09-28T16:22:26.770Z,54.43
2022-09-28T16:25:00.504Z,54.28
2022-09-28T16:27:40.680Z,54.37
2022-09-28T16:30:24.741Z,54.44
2022-09-28T16:32:56.743Z,54.53
2022-09-28T16:35:27.738Z,54.58
2022-09-28T16:38:18.549Z,54.63
2022-09-28T16:40:54.579Z,54.66
2022-09-28T16:43:29.336Z,54.70
2022-09-28T16:46:23.121Z,54.76
2022-09-28T16:48:52.162Z,54.83
2022-09-28T16:51:22.790Z,54.89
2022-09-28T16:54:10.653Z,54.95
2022-09-28T16:56:40.388Z,55.02
2022-09-28T16:59:13.593Z,54.94
2022-09-28T17:01:46.414Z,54.99
2022-09-28T17:04:15.717Z,55.05
2022-09-28T17:06:44.477Z,55.15
2022-09-28T17:09:13.638Z,55.17
2022-09-28T17:11:42.265Z,55.11
2022-09-28T17:14:12.457Z,55.23
2022-09-28T17:17:06.605Z,55.38
2022-09-28T17:19:32.634Z,55.24
2022-09-28T17:22:01.821Z,55.26
2022-09-28T17:24:31.771Z,55.42
2022-09-28T17:27:01.087Z,55.50
2022-09-28T17:29:30.494Z,55.61
2022-09-28T17:31:59.101Z,55.63
2022-09-28T17:34:27.717Z,55.73
2022-09-28T17:36:56.244Z,55.72
2022-09-28T17:39:25.542Z,55.69
2022-09-28T17:41:54.185Z,55.65
2022-09-28T17:44:22.658Z,55.73
2022-09-28T17:46:52.535Z,55.71
2022-09-28T17:49:21.025Z,55.73
2022-09-28T17:51:50.558Z,55.88
2022-09-28T17:54:21.261Z,55.90
2022-09-28T17:56:50.046Z,55.91
2022-09-28T17:59:19.961Z,56.08
2022-09-28T18:01:48.678Z,56.07
2022-09-28T18:04:39.847Z,56.19
2022-09-28T18:07:07.712Z,56.15
2022-09-28T18:09:37.271Z,56.25
2022-09-28T18:12:06.763Z,56.52
2022-09-28T18:14:36.424Z,56.70
2022-09-28T18:17:05.240Z,56.65
2022-09-28T18:19:34.428Z,56.62
2022-09-28T18:22:03.861Z,56.84
2022-09-28T18:24:33.081Z,57.20
2022-09-28T18:27:02.443Z,57.25
2022-09-28T18:29:33.561Z,57.20
2022-09-28T18:32:04.769Z,57.15
2022-09-28T18:34:37.385Z,57.23
2022-09-28T18:37:06.676Z,57.27
2022-09-28T18:39:37.055Z,57.22
2022-09-28T18:42:06.881Z,57.37
2022-09-28T18:44:35.873Z,57.45
2022-09-28T18:47:05.336Z,57.49
2022-09-28T18:49:35.162Z,57.59
2022-09-28T18:52:04.110Z,57.78
2022-09-28T18:54:33.962Z,57.71
2022-09-28T18:57:02.956Z,57.77
2022-09-28T18:59:32.107Z,58.05
2022-09-28T19:02:02.336Z,57.88
2022-09-28T19:04:31.613Z,58.32
2022-09-28T19:07:00.196Z,58.11
2022-09-28T19:09:29.541Z,58.08
2022-09-28T19:11:58.932Z,58.16
2022-09-28T19:14:27.551Z,58.39
2022-09-28T19:16:56.134Z,58.48
2022-09-28T19:19:25.040Z,58.62
2022-09-28T19:21:54.016Z,58.56
2022-09-28T19:24:22.935Z,58.75
2022-09-28T19:26:53.923Z,58.80
2022-09-28T19:29:22.980Z,58.75
2022-09-28T19:31:52.449Z,58.83
2022-09-28T19:34:24.684Z,58.86
2022-09-28T19:36:53.870Z,59.19
2022-09-28T19:39:23.014Z,59.17
2022-09-28T19:41:52.089Z,59.32
2022-09-28T19:44:30.258Z,59.49
2022-09-28T19:47:07.252Z,59.39
2022-09-28T19:49:39.545Z,59.68
2022-09-28T19:52:16.352Z,59.68
2022-09-28T19:55:01.357Z,59.93
2022-09-28T19:57:32.830Z,60.37
2022-09-28T20:00:03.865Z,59.96
2022-09-28T20:02:38.219Z,60.11
2022-09-28T20:05:07.060Z,60.00
2022-09-28T20:07:36.622Z,60.09
2022-09-28T20:10:06.593Z,60.30
2022-09-28T20:12:35.332Z,60.72
2022-09-28T20:15:05.885Z,60.27
2022-09-28T20:17:36.769Z,60.44
2022-09-28T20:20:06.408Z,60.60
2022-09-28T20:22:35.378Z,60.63
2022-09-28T20:25:04.401Z,60.89
2022-09-28T20:27:34.183Z,60.57
2022-09-28T20:30:03.928Z,60.55
2022-09-28T20:32:34.236Z,60.64
2022-09-28T20:35:03.187Z,60.83
2022-09-28T20:37:34.449Z,60.69
2022-09-28T20:40:03.778Z,60.75
2022-09-28T20:42:33.337Z,60.73
2022-09-28T20:45:02.076Z,60.75
2022-09-28T20:47:32.002Z,60.72
2022-09-28T20:50:01.535Z,60.79
2022-09-28T20:52:31.209Z,61.14
2022-09-28T20:55:00.573Z,61.02
2022-09-28T20:57:30.502Z,61.03
2022-09-28T21:00:03.145Z,61.18
2022-09-28T21:02:33.433Z,61.27
2022-09-28T21:05:03.151Z,61.25
2022-09-28T21:07:32.542Z,61.34
2022-09-28T21:10:04.072Z,61.42
2022-09-28T21:12:35.638Z,61.43
2022-09-28T21:15:06.399Z,61.43
2022-09-28T21:17:35.356Z,61.36
2022-09-28T21:20:05.010Z,61.49
2022-09-28T21:22:34.368Z,61.42
2022-09-28T21:25:04.222Z,61.51
2022-09-28T21:27:32.966Z,61.30
2022-09-28T21:30:02.494Z,61.34
2022-09-28T21:32:53.017Z,61.48
2022-09-28T21:35:22.185Z,61.38
2022-09-28T21:37:52.103Z,61.57
2022-09-28T21:40:22.052Z,61.64
2022-09-28T21:42:51.322Z,61.75
2022-09-28T21:45:20.468Z,61.75
2022-09-28T21:47:53.890Z,61.76
2022-09-28T21:50:25.515Z,61.79
2022-09-28T21:52:56.512Z,61.78
2022-09-28T21:55:25.525Z,61.62
2022-09-28T21:57:54.674Z,61.48
2022-09-28T22:00:24.214Z,61.56
2022-09-28T22:02:55.255Z,61.68
2022-09-28T22:05:24.827Z,61.54
2022-09-28T22:07:55.196Z,61.57
2022-09-28T22:10:24.803Z,61.72
2022-09-28T22:12:54.122Z,61.75
2022-09-28T22:15:24.619Z,61.76
2022-09-28T22:17:54.948Z,61.93
2022-09-28T22:20:24.572Z,61.86
2022-09-28T22:22:54.503Z,61.96
2022-09-28T22:25:23.771Z,62.12
2022-09-28T22:27:53.850Z,62.30
2022-09-28T22:30:23.327Z,62.09
2022-09-28T22:32:52.489Z,62.36
2022-09-28T22:35:21.669Z,62.24
2022-09-28T22:37:51.192Z,62.14
2022-09-28T22:40:20.516Z,62.32
2022-09-28T22:42:49.981Z,62.44
2022-09-28T22:45:19.819Z,62.47
2022-09-28T22:47:48.808Z,62.30
2022-09-28T22:50:18.281Z,62.20
2022-09-28T22:52:48.886Z,62.49
2022-09-28T22:55:18.020Z,62.31
2022-09-28T22:57:47.302Z,62.59
2022-09-28T23:00:16.853Z,62.71
